createdAt,value
2023-06-29T00:04:21.785Z,1011.26
2023-06-29T00:14:22.356Z,1011.22
2023-06-29T00:24:22.882Z,1011.20
2023-06-29T00:34:23.491Z,1011.18
2023-06-29T00:44:24.020Z,1011.13
2023-06-29T00:54:24.595Z,1011.05
2023-06-29T01:04:25.139Z,1010.94
2023-06-29T01:14:25.716Z,1010.91
2023-06-29T01:24:26.231Z,1010.82
2023-06-29T01:34:26.813Z,1010.78
2023-06-29T01:44:27.341Z,1010.74
2023-06-29T01:54:27.935Z,1010.67
2023-06-29T02:04:28.469Z,1010.67
2023-06-29T02:14:29.009Z,1010.59
2023-06-29T02:24:29.569Z,1010.63
2023-06-29T02:34:30.102Z,1010.67
2023-06-29T02:44:30.609Z,1010.67
2023-06-29T02:54:31.214Z,1010.69
2023-06-29T03:04:31.695Z,1010.69
2023-06-29T03:14:32.217Z,1010.74
2023-06-29T03:24:32.692Z,1010.73
2023-06-29T03:34:33.203Z,1010.80
2023-06-29T03:44:33.685Z,1010.80
2023-06-29T03:54:34.226Z,1010.81
2023-06-29T04:04:34.728Z,1010.82
2023-06-29T04:14:35.237Z,1010.88
2023-06-29T04:24:35.715Z,1010.80
2023-06-29T04:34:36.234Z,1010.82
2023-06-29T04:44:36.791Z,1010.81
2023-06-29T04:54:37.333Z,1010.72
2023-06-29T05:04:37.817Z,1010.69
2023-06-29T05:14:38.324Z,1010.74
2023-06-29T05:24:38.803Z,1010.70
2023-06-29T05:34:39.331Z,1010.71
2023-06-29T05:44:39.795Z,1010.70
2023-06-29T05:54:47.358Z,1010.68
2023-06-29T06:04:40.827Z,1010.72
2023-06-29T06:14:41.456Z,1010.74
2023-06-29T06:24:41.902Z,1010.70
2023-06-29T06:34:42.422Z,1010.65
2023-06-29T06:44:42.941Z,1010.59
2023-06-29T06:54:43.479Z,1010.58
2023-06-29T07:04:43.981Z,1010.56
2023-06-29T07:14:44.511Z,1010.59
2023-06-29T07:24:44.991Z,1010.56
2023-06-29T07:34:45.511Z,1010.47
2023-06-29T07:44:45.970Z,1010.42
2023-06-29T07:54:46.524Z,1010.43
2023-06-29T08:14:47.910Z,1010.43
2023-06-29T08:24:48.390Z,1010.40
2023-06-29T08:34:48.897Z,1010.37
2023-06-29T08:44:49.376Z,1010.40
2023-06-29T08:54:49.881Z,1010.38
2023-06-29T09:04:50.359Z,1010.38
2023-06-29T09:14:50.875Z,1010.35
2023-06-29T09:25:04.715Z,1010.29
2023-06-29T09:34:53.336Z,1010.28
2023-06-29T09:44:52.852Z,1010.24
2023-06-29T09:54:53.354Z,1010.17
2023-06-29T10:04:54.949Z,1010.11
2023-06-29T10:14:54.517Z,1010.11
2023-06-29T10:24:55.004Z,1010.02
2023-06-29T10:34:55.533Z,1009.94
2023-06-29T10:44:56.030Z,1009.77
2023-06-29T10:54:56.565Z,1009.72
2023-06-29T11:04:57.046Z,1009.68
2023-06-29T11:25:00.584Z,1009.50
2023-06-29T11:34:59.166Z,1009.48
2023-06-29T11:44:59.611Z,1009.37
2023-06-29T11:55:07.142Z,1009.25
2023-06-29T12:05:00.732Z,1009.19
2023-06-29T12:15:01.321Z,1009.03
2023-06-29T12:25:01.773Z,1008.91
2023-06-29T12:35:02.310Z,1008.88
2023-06-29T12:45:02.766Z,1008.79
2023-06-29T12:55:03.293Z,1008.80
2023-06-29T13:05:03.786Z,1008.70
2023-06-29T13:15:04.311Z,1008.60
2023-06-29T13:25:04.792Z,1008.47
2023-06-29T13:35:05.318Z,1008.45
2023-06-29T13:45:05.792Z,1008.34
2023-06-29T13:55:06.291Z,1008.28
2023-06-29T14:05:06.764Z,1008.16
2023-06-29T14:15:07.290Z,1008.08
2023-06-29T14:25:07.780Z,1007.97
2023-06-29T14:35:08.359Z,1007.91
2023-06-29T14:45:08.828Z,1007.78
2023-06-29T14:55:09.368Z,1007.65
2023-06-29T15:05:09.837Z,1007.60
2023-06-29T15:15:11.845Z,1007.50
2023-06-29T15:25:11.164Z,1007.40
2023-06-29T15:35:11.742Z,1007.37
2023-06-29T15:45:12.229Z,1007.27
2023-06-29T15:55:12.765Z,1007.17
2023-06-29T16:05:13.235Z,1007.04
2023-06-29T16:15:13.778Z,1006.95
2023-06-29T16:25:14.262Z,1006.91
2023-06-29T16:35:14.770Z,1006.79
2023-06-29T16:45:15.268Z,1006.70
2023-06-29T16:55:15.832Z,1006.70
2023-06-29T17:05:16.297Z,1006.70
2023-06-29T17:15:16.809Z,1006.65
2023-06-29T17:25:17.293Z,1006.59
2023-06-29T17:35:17.824Z,1006.50
2023-06-29T17:45:18.298Z,1006.44
2023-06-29T17:55:18.821Z,1006.37
2023-06-29T18:05:26.418Z,1006.30
2023-06-29T18:15:19.932Z,1006.26
2023-06-29T18:25:20.402Z,1006.24
2023-06-29T18:35:20.942Z,1006.21
2023-06-29T18:45:21.453Z,1006.15
2023-06-29T18:55:21.981Z,1006.10
2023-06-29T19:05:22.469Z,1006.11
2023-06-29T19:15:22.993Z,1006.06
2023-06-29T19:25:23.484Z,1006.11
2023-06-29T19:35:24.012Z,1006.15
2023-06-29T19:45:24.583Z,1006.19
2023-06-29T19:55:25.102Z,1006.24
2023-06-29T20:05:25.600Z,1006.23
2023-06-29T20:15:26.157Z,1006.23
2023-06-29T20:25:26.698Z,1006.29
2023-06-29T20:35:27.263Z,1006.26
2023-06-29T20:45:27.966Z,1006.24
2023-06-29T20:55:28.523Z,1006.17
2023-06-29T21:05:29.106Z,1006.09
2023-06-29T21:15:29.852Z,1006.07
2023-06-29T21:25:30.404Z,1006.09
2023-06-29T21:35:30.974Z,1006.08
2023-06-29T21:45:31.519Z,1006.05
2023-06-29T21:55:32.088Z,1005.96
2023-06-29T22:05:32.623Z,1005.97
2023-06-29T22:15:33.227Z,1005.97
2023-06-29T22:25:33.786Z,1005.99
2023-06-29T22:35:34.434Z,1005.94
2023-06-29T22:45:35.004Z,1005.90
2023-06-29T22:55:35.575Z,1005.92
2023-06-29T23:05:36.125Z,1005.90
2023-06-29T23:15:36.690Z,1005.85
2023-06-29T23:25:37.292Z,1005.83
2023-06-29T23:35:37.888Z,1005.91
2023-06-29T23:45:38.421Z,1005.89
2023-06-29T23:55:39.061Z,1005.84
